createdAt,value
2022-09-14T00:01:33.944Z,19.02
2022-09-14T00:04:59.100Z,19.030001
2022-09-14T00:08:24.296Z,19.030001
2022-09-14T00:11:49.501Z,19.01
2022-09-14T00:15:14.678Z,18.98
2022-09-14T00:18:39.875Z,18.969999
2022-09-14T00:22:05.117Z,18.950001
2022-09-14T00:25:30.281Z,18.950001
2022-09-14T00:28:55.474Z,18.940001
2022-09-14T00:32:20.675Z,18.92
2022-09-14T00:35:45.881Z,18.92
2022-09-14T00:39:11.104Z,18.93
2022-09-14T00:42:36.292Z,18.92
2022-09-14T00:46:01.621Z,18.9
2022-09-14T00:49:26.720Z,18.860001
2022-09-14T00:52:51.911Z,18.860001
2022-09-14T00:56:17.105Z,18.85
2022-09-14T00:59:42.280Z,18.879999
2022-09-14T01:03:07.506Z,18.91
2022-09-14T01:06:32.673Z,18.93
2022-09-14T01:09:57.837Z,18.93
2022-09-14T01:13:23.002Z,18.950001
2022-09-14T01:16:48.285Z,18.93
2022-09-14T01:20:13.414Z,18.92
2022-09-14T01:23:38.602Z,18.91
2022-09-14T01:27:03.795Z,18.9
2022-09-14T01:30:28.976Z,18.879999
2022-09-14T01:33:54.151Z,18.879999
2022-09-14T01:37:19.365Z,18.870001
2022-09-14T01:40:44.543Z,18.85
2022-09-14T01:44:09.720Z,18.85
2022-09-14T01:47:34.925Z,18.85
2022-09-14T01:51:00.121Z,18.84
2022-09-14T01:54:25.310Z,18.84
2022-09-14T01:57:50.451Z,18.84
2022-09-14T02:01:15.713Z,18.83
2022-09-14T02:04:40.809Z,18.83
2022-09-14T02:08:05.970Z,18.84
2022-09-14T02:11:31.209Z,18.83
2022-09-14T02:14:56.330Z,18.82
2022-09-14T02:18:21.505Z,18.83
2022-09-14T02:21:46.679Z,18.85
2022-09-14T02:25:11.899Z,18.85
2022-09-14T02:28:37.221Z,18.85
2022-09-14T02:32:02.280Z,18.85
2022-09-14T02:35:27.503Z,18.870001
2022-09-14T02:38:52.678Z,18.879999
2022-09-14T02:42:17.892Z,18.870001
2022-09-14T02:45:43.195Z,18.85
2022-09-14T02:49:08.368Z,18.860001
2022-09-14T02:52:33.564Z,18.860001
2022-09-14T02:55:58.750Z,18.860001
2022-09-14T02:59:23.930Z,18.870001
2022-09-14T03:02:49.238Z,18.870001
2022-09-14T03:06:14.315Z,18.85
2022-09-14T03:09:39.512Z,18.85
2022-09-14T03:13:04.684Z,18.83
2022-09-14T03:16:29.954Z,18.82
2022-09-14T03:19:55.171Z,18.809999
2022-09-14T03:23:20.257Z,18.809999
2022-09-14T03:26:45.450Z,18.82
2022-09-14T03:30:10.655Z,18.790001
2022-09-14T03:33:35.850Z,18.790001
2022-09-14T03:37:01.054Z,18.77
2022-09-14T03:40:26.291Z,18.799999
2022-09-14T03:43:51.457Z,18.82
2022-09-14T03:47:16.612Z,18.84
2022-09-14T03:50:43.402Z,18.84
2022-09-14T03:54:08.693Z,18.860001
2022-09-14T03:57:33.761Z,18.870001
2022-09-14T04:01:02.434Z,18.860001
2022-09-14T04:04:28.266Z,18.860001
2022-09-14T04:07:53.575Z,18.860001
2022-09-14T04:11:18.776Z,18.879999
2022-09-14T04:14:44.009Z,18.879999
2022-09-14T04:18:16.836Z,18.860001
2022-09-14T04:21:42.061Z,18.85
2022-09-14T04:25:08.156Z,18.860001
2022-09-14T04:28:33.430Z,18.860001
2022-09-14T04:31:58.509Z,18.84
2022-09-14T04:35:23.714Z,18.85
2022-09-14T04:38:48.917Z,18.82
2022-09-14T04:42:14.133Z,18.790001
2022-09-14T04:45:39.385Z,18.790001
2022-09-14T04:49:04.541Z,18.790001
2022-09-14T04:52:29.738Z,18.76
2022-09-14T04:55:54.938Z,18.76
2022-09-14T04:59:20.197Z,18.75
2022-09-14T05:02:45.478Z,18.76
2022-09-14T05:06:10.579Z,18.780001
2022-09-14T05:09:35.808Z,18.799999
2022-09-14T05:13:00.980Z,18.809999
2022-09-14T05:16:26.270Z,18.84
2022-09-14T05:19:51.480Z,18.860001
2022-09-14T05:23:16.589Z,18.860001
2022-09-14T05:26:41.770Z,18.870001
2022-09-14T05:30:06.998Z,18.889999
2022-09-14T05:33:32.252Z,18.9
2022-09-14T05:36:57.588Z,18.879999
2022-09-14T05:40:22.765Z,18.870001
2022-09-14T05:43:47.927Z,18.870001
2022-09-14T05:47:13.143Z,18.879999
2022-09-14T05:50:38.357Z,18.9
2022-09-14T05:54:03.582Z,18.91
2022-09-14T05:57:28.759Z,18.93
2022-09-14T06:00:54.051Z,18.940001
2022-09-14T06:04:19.232Z,18.940001
2022-09-14T06:07:44.447Z,18.950001
2022-09-14T06:11:09.665Z,18.959999
2022-09-14T06:14:34.817Z,19
2022-09-14T06:18:00.009Z,19.030001
2022-09-14T06:21:25.184Z,19.059999
2022-09-14T06:24:50.424Z,19.09
2022-09-14T06:28:15.631Z,19.129999
2022-09-14T06:31:40.856Z,19.139999
2022-09-14T06:35:09.209Z,19.139999
2022-09-14T06:38:31.288Z,19.18
2022-09-14T06:41:56.531Z,19.18
2022-09-14T06:45:21.814Z,19.190001
2022-09-14T06:48:46.979Z,19.23
2022-09-14T06:52:12.175Z,19.25
2022-09-14T06:55:37.447Z,19.26
2022-09-14T06:59:02.767Z,19.280001
2022-09-14T07:02:28.059Z,19.280001
2022-09-14T07:05:53.241Z,19.290001
2022-09-14T07:09:18.441Z,19.280001
2022-09-14T07:12:43.676Z,19.27
2022-09-14T07:16:08.960Z,19.26
2022-09-14T07:19:34.201Z,19.27
2022-09-14T07:22:59.419Z,19.32
2022-09-14T07:26:24.627Z,19.33
2022-09-14T07:29:49.874Z,19.360001
2022-09-14T07:33:15.107Z,19.379999
2022-09-14T07:36:40.514Z,19.4
2022-09-14T07:40:05.576Z,19.42
2022-09-14T07:43:30.764Z,19.43
2022-09-14T07:46:55.979Z,19.450001
2022-09-14T07:50:21.242Z,19.459999
2022-09-14T07:53:46.406Z,19.459999
2022-09-14T07:57:11.604Z,19.5
2022-09-14T08:00:36.831Z,19.530001
2022-09-14T08:04:05.269Z,19.57
2022-09-14T08:07:27.287Z,19.58
2022-09-14T08:10:52.528Z,19.58
2022-09-14T08:14:17.712Z,19.610001
2022-09-14T08:17:42.897Z,19.68
2022-09-14T08:21:08.068Z,19.76
2022-09-14T08:24:33.279Z,19.790001
2022-09-14T08:27:58.482Z,19.83
2022-09-14T08:31:23.722Z,19.860001
2022-09-14T08:34:48.866Z,19.860001
2022-09-14T08:38:14.057Z,19.860001
2022-09-14T08:41:39.267Z,19.879999
2022-09-14T08:45:08.972Z,19.91
2022-09-14T08:48:29.678Z,19.950001
2022-09-14T08:51:54.916Z,20.02
2022-09-14T08:55:20.140Z,20.08
2022-09-14T08:58:48.394Z,20.110001
2022-09-14T09:02:10.687Z,20.129999
2022-09-14T09:05:35.829Z,20.18
2022-09-14T09:09:01.096Z,20.219999
2022-09-14T09:12:26.275Z,20.27
2022-09-14T09:15:51.513Z,20.35
2022-09-14T09:19:16.649Z,20.43
2022-09-14T09:22:41.827Z,20.5
2022-09-14T09:26:07.015Z,20.57
2022-09-14T09:29:32.215Z,20.639999
2022-09-14T09:32:57.400Z,20.66
2022-09-14T09:36:22.591Z,20.65
2022-09-14T09:39:47.805Z,20.65
2022-09-14T09:43:12.918Z,20.620001
2022-09-14T09:46:38.185Z,20.58
2022-09-14T09:50:03.321Z,20.530001
2022-09-14T09:53:28.586Z,20.540001
2022-09-14T09:56:53.727Z,20.540001
2022-09-14T10:00:18.909Z,20.559999
2022-09-14T10:03:44.111Z,20.549999
2022-09-14T10:07:09.288Z,20.530001
2022-09-14T10:10:34.573Z,20.52
2022-09-14T10:13:59.709Z,20.49
2022-09-14T10:17:24.873Z,20.459999
2022-09-14T10:20:50.063Z,20.459999
2022-09-14T10:24:15.232Z,20.49
2022-09-14T10:27:40.498Z,20.5
2022-09-14T10:31:05.714Z,20.52
2022-09-14T10:34:30.875Z,20.5
2022-09-14T10:37:56.053Z,20.5
2022-09-14T10:41:21.289Z,20.469999
2022-09-14T10:44:46.613Z,20.450001
2022-09-14T10:48:11.744Z,20.43
2022-09-14T10:51:36.936Z,20.450001
2022-09-14T10:55:02.109Z,20.459999
2022-09-14T10:58:27.289Z,20.469999
2022-09-14T11:01:52.676Z,20.5
2022-09-14T11:05:17.733Z,20.530001
2022-09-14T11:08:42.912Z,20.59
2022-09-14T11:12:08.104Z,20.65
2022-09-14T11:15:33.320Z,20.73
2022-09-14T11:18:58.512Z,20.84
2022-09-14T11:22:23.667Z,20.91
2022-09-14T11:25:48.861Z,20.959999
2022-09-14T11:29:14.081Z,20.98
2022-09-14T11:32:39.301Z,21.02
2022-09-14T11:36:04.567Z,21.02
2022-09-14T11:39:29.719Z,21.030001
2022-09-14T11:42:54.931Z,21.07
2022-09-14T11:46:20.208Z,21.08
2022-09-14T11:49:45.367Z,21.049999
2022-09-14T11:53:10.714Z,21.040001
2022-09-14T11:56:35.810Z,21.040001
2022-09-14T12:00:01.042Z,21.049999
2022-09-14T12:03:26.285Z,21.040001
2022-09-14T12:06:51.497Z,21
2022-09-14T12:10:16.712Z,20.98
2022-09-14T12:13:41.894Z,20.98
2022-09-14T12:17:22.692Z,21.02
2022-09-14T12:20:32.333Z,21.02
2022-09-14T12:23:57.521Z,21.08
2022-09-14T12:27:22.832Z,21.1
2022-09-14T12:30:47.987Z,21.1
2022-09-14T12:34:13.160Z,21.09
2022-09-14T12:37:38.365Z,21.08
2022-09-14T12:41:03.574Z,21.09
2022-09-14T12:44:30.532Z,21.08
2022-09-14T12:47:55.729Z,21.049999
2022-09-14T12:51:20.932Z,21.059999
2022-09-14T12:54:50.622Z,21.059999
2022-09-14T12:58:11.355Z,21.110001
2022-09-14T13:01:36.820Z,21.129999
2022-09-14T13:05:01.810Z,21.15
2022-09-14T13:08:27.011Z,21.200001
2022-09-14T13:11:52.238Z,21.209999
2022-09-14T13:15:17.439Z,21.17
2022-09-14T13:18:42.781Z,21.17
2022-09-14T13:22:07.859Z,21.17
2022-09-14T13:25:33.056Z,21.17
2022-09-14T13:28:58.247Z,21.190001
2022-09-14T13:32:23.427Z,21.190001
2022-09-14T13:35:48.662Z,21.17
2022-09-14T13:39:13.791Z,21.110001
2022-09-14T13:42:39.132Z,21.02
2022-09-14T13:46:04.363Z,20.950001
2022-09-14T13:49:29.553Z,20.9
2022-09-14T13:53:02.211Z,20.83
2022-09-14T13:56:19.950Z,20.76
2022-09-14T13:59:45.129Z,20.73
2022-09-14T14:03:10.313Z,20.66
2022-09-14T14:06:35.498Z,20.629999
2022-09-14T14:10:00.738Z,20.610001
2022-09-14T14:13:25.917Z,20.58
2022-09-14T14:16:51.157Z,20.540001
2022-09-14T14:20:16.296Z,20.52
2022-09-14T14:23:56.631Z,20.48
2022-09-14T14:27:06.721Z,20.43
2022-09-14T14:30:31.885Z,20.389999
2022-09-14T15:04:00.148Z,17.9
2022-09-14T15:07:25.097Z,18.860001
2022-09-14T15:10:50.270Z,19.09
2022-09-14T15:14:15.429Z,19.309999
2022-09-14T15:17:40.622Z,19.48
2022-09-14T15:21:05.944Z,19.639999
2022-09-14T15:24:31.047Z,19.76
2022-09-14T15:27:56.213Z,19.860001
2022-09-14T15:31:21.416Z,19.950001
2022-09-14T15:34:46.559Z,20.01
2022-09-14T15:38:11.804Z,20.059999
2022-09-14T15:41:36.973Z,20.09
2022-09-14T15:45:02.127Z,20.09
2022-09-14T15:48:27.310Z,20.040001
2022-09-14T15:51:52.490Z,20.030001
2022-09-14T15:55:17.690Z,20
2022-09-14T15:58:47.388Z,20
2022-09-14T16:02:08.115Z,19.959999
2022-09-14T16:05:33.255Z,19.959999
2022-09-14T16:08:58.432Z,19.959999
2022-09-14T16:12:23.653Z,19.959999
2022-09-14T16:15:48.866Z,19.969999
2022-09-14T16:19:15.674Z,19.98
2022-09-14T16:22:40.849Z,20
2022-09-14T16:26:06.046Z,20.01
2022-09-14T16:29:31.318Z,20
2022-09-14T16:32:56.386Z,19.969999
2022-09-14T16:36:21.592Z,19.93
2022-09-14T16:39:46.824Z,19.889999
2022-09-14T16:43:12.042Z,19.870001
2022-09-14T16:46:37.318Z,19.860001
2022-09-14T16:50:02.367Z,19.879999
2022-09-14T16:53:27.544Z,19.889999
2022-09-14T16:56:52.705Z,19.92
2022-09-14T17:00:17.972Z,19.940001
2022-09-14T17:03:43.350Z,19.959999
2022-09-14T17:07:08.461Z,19.99
2022-09-14T17:10:33.634Z,19.99
2022-09-14T17:13:58.794Z,19.99
2022-09-14T17:17:24.078Z,20.02
2022-09-14T17:20:49.353Z,20.059999
2022-09-14T17:24:14.622Z,20.059999
2022-09-14T17:27:39.888Z,20.040001
2022-09-14T17:31:05.238Z,20.030001
2022-09-14T17:34:30.533Z,20.030001
2022-09-14T17:37:55.796Z,20.02
2022-09-14T17:41:21.016Z,20.030001
2022-09-14T17:44:46.257Z,20.059999
2022-09-14T17:48:11.763Z,20.07
2022-09-14T17:51:36.997Z,20.07
2022-09-14T17:55:02.281Z,20.08
2022-09-14T17:58:27.466Z,20.09
2022-09-14T18:01:52.694Z,20.07
2022-09-14T18:05:17.901Z,20.09
2022-09-14T18:08:43.145Z,20.09
2022-09-14T18:12:08.497Z,20.09
2022-09-14T18:15:37.040Z,20.07
2022-09-14T18:18:58.834Z,20.07
2022-09-14T18:22:24.074Z,20.08
2022-09-14T18:25:49.338Z,20.059999
2022-09-14T18:29:14.701Z,20
2022-09-14T18:32:39.842Z,19.99
2022-09-14T18:36:05.078Z,19.99
2022-09-14T18:39:30.272Z,19.969999
2022-09-14T18:42:55.530Z,19.959999
2022-09-14T18:46:23.405Z,19.959999
2022-09-14T18:49:45.966Z,19.940001
2022-09-14T18:53:11.201Z,19.959999
2022-09-14T18:56:36.433Z,19.940001
2022-09-14T19:00:01.674Z,19.92
2022-09-14T19:03:26.913Z,19.9
2022-09-14T19:06:52.123Z,19.889999
2022-09-14T19:10:17.369Z,19.889999
2022-09-14T19:13:42.592Z,19.860001
2022-09-14T19:17:07.824Z,19.85
2022-09-14T19:20:48.912Z,19.84
2022-09-14T19:23:58.297Z,19.84
2022-09-14T19:27:23.527Z,19.82
2022-09-14T19:30:48.844Z,19.809999
2022-09-14T19:34:13.991Z,19.809999
2022-09-14T19:37:39.270Z,19.809999
2022-09-14T19:41:04.531Z,19.809999
2022-09-14T19:44:29.818Z,19.799999
2022-09-14T19:47:55.028Z,19.780001
2022-09-14T19:51:20.225Z,19.77
2022-09-14T19:54:45.452Z,19.799999
2022-09-14T19:58:10.590Z,19.799999
2022-09-14T20:01:35.866Z,19.76
2022-09-14T20:05:00.976Z,19.73
2022-09-14T20:08:26.157Z,19.73
2022-09-14T20:11:51.362Z,19.719999
2022-09-14T20:15:16.536Z,19.709999
2022-09-14T20:18:41.782Z,19.700001
2022-09-14T20:22:06.933Z,19.65
2022-09-14T20:25:32.107Z,19.65
2022-09-14T20:28:57.390Z,19.65
2022-09-14T20:32:22.470Z,19.68
2022-09-14T20:35:47.665Z,19.68
2022-09-14T20:39:12.831Z,19.709999
2022-09-14T20:42:38.000Z,19.709999
2022-09-14T20:46:03.254Z,19.700001
2022-09-14T20:49:28.373Z,19.700001
2022-09-14T20:52:53.559Z,19.700001
2022-09-14T20:56:18.727Z,19.700001
2022-09-14T20:59:43.922Z,19.690001
2022-09-14T21:03:09.217Z,19.68
2022-09-14T21:06:34.325Z,19.68
2022-09-14T21:09:59.519Z,19.68
2022-09-14T21:13:24.691Z,19.690001
2022-09-14T21:16:49.850Z,19.690001
2022-09-14T21:20:15.049Z,19.629999
2022-09-14T21:23:40.227Z,19.440001
2022-09-14T21:27:05.388Z,19.25
2022-09-14T21:30:30.595Z,19.129999
2022-09-14T21:33:55.812Z,19.01
2022-09-14T21:37:21.044Z,18.92
2022-09-14T21:40:46.226Z,18.85
2022-09-14T21:44:11.439Z,18.790001
2022-09-14T21:47:36.643Z,18.76
2022-09-14T21:51:01.877Z,18.77
2022-09-14T21:54:27.061Z,18.77
2022-09-14T21:57:52.243Z,18.719999
2022-09-14T22:01:17.447Z,18.690001
2022-09-14T22:04:42.596Z,18.690001
2022-09-14T22:08:07.807Z,18.65
2022-09-14T22:11:33.019Z,18.620001
2022-09-14T22:14:58.184Z,18.57
2022-09-14T22:18:23.358Z,18.49
2022-09-14T22:21:48.522Z,18.41
2022-09-14T22:25:13.698Z,18.370001
2022-09-14T22:28:38.925Z,18.370001
2022-09-14T22:32:04.083Z,18.360001
2022-09-14T22:35:29.288Z,18.370001
2022-09-14T22:38:54.473Z,18.370001
2022-09-14T22:42:19.653Z,18.34
2022-09-14T22:45:44.877Z,18.290001
2022-09-14T22:49:10.041Z,18.190001
2022-09-14T22:52:35.217Z,18.09
2022-09-14T22:56:00.385Z,18
2022-09-14T22:59:25.569Z,17.98
2022-09-14T23:02:50.865Z,17.98
2022-09-14T23:06:15.947Z,17.99
2022-09-14T23:09:41.161Z,17.99
2022-09-14T23:13:06.355Z,18
2022-09-14T23:16:31.555Z,17.99
2022-09-14T23:19:56.825Z,18.01
2022-09-14T23:23:21.906Z,18.02
2022-09-14T23:26:47.114Z,17.99
2022-09-14T23:30:12.272Z,17.969999
2022-09-14T23:33:37.498Z,18
2022-09-14T23:37:02.826Z,18.049999
2022-09-14T23:40:27.920Z,18.09
2022-09-14T23:43:53.057Z,18.110001
2022-09-14T23:47:18.259Z,18.110001
2022-09-14T23:50:43.416Z,18.120001
2022-09-14T23:54:08.647Z,18.15
2022-09-14T23:57:33.918Z,18.16
